Time;durP1;ratioP1;P1;durP2;ratioP2;P2;SDS_P1;SDS_P2;PMS_P1;PMS_P2;Temp;Humidity;BMP_temperature;BMP_pressure;BME280_temperature;BME280_humidity;BME280_pressure;Samples;Min_cycle;Max_cycle;Signal;HPM_P1;HPM_P2
2020/12/27 00:01:30;;;;;;;10.15;4.18;;;-0.40;86.80;;;;;;5014330;28;20671;-84
2020/12/27 00:03:56;;;;;;;10.38;4.00;;;-0.30;87.00;;;;;;5017083;28;20056;-84
2020/12/27 00:06:26;;;;;;;10.93;3.97;;;-0.40;87.20;;;;;;5000052;28;20054;-84
2020/12/27 00:08:52;;;;;;;11.35;4.15;;;-0.40;87.10;;;;;;5020990;28;20069;-84
2020/12/27 00:11:17;;;;;;;7.72;3.53;;;-0.40;87.30;;;;;;5018688;28;20072;-82
2020/12/27 00:13:43;;;;;;;7.85;3.80;;;-0.50;87.10;;;;;;5017946;28;20034;-83
2020/12/27 00:16:08;;;;;;;5.32;3.45;;;-0.50;87.50;;;;;;5020333;28;20037;-83
2020/12/27 00:18:34;;;;;;;7.95;3.95;;;-0.50;87.50;;;;;;5020330;28;20050;-82
2020/12/27 00:20:59;;;;;;;10.02;3.90;;;-0.50;87.90;;;;;;5019402;28;20109;-83
2020/12/27 00:23:25;;;;;;;8.93;4.35;;;-0.40;87.50;;;;;;5019122;28;20560;-82
2020/12/27 00:25:50;;;;;;;10.88;4.28;;;-0.40;87.60;;;;;;5007278;28;20085;-82
2020/12/27 00:28:16;;;;;;;9.57;4.05;;;-0.40;87.70;;;;;;5027010;28;20044;-85
2020/12/27 00:30:41;;;;;;;13.55;4.30;;;-0.40;87.30;;;;;;5025447;28;20967;-83
2020/12/27 00:33:07;;;;;;;14.77;4.50;;;-0.50;87.20;;;;;;5020834;28;20034;-83
2020/12/27 00:35:32;;;;;;;10.73;3.95;;;-0.40;87.50;;;;;;5021809;28;20034;-83
2020/12/27 00:37:58;;;;;;;11.35;4.50;;;-0.50;87.40;;;;;;5021170;28;20029;-83
2020/12/27 00:40:23;;;;;;;6.63;3.40;;;-0.40;87.40;;;;;;5020518;28;20137;-85
2020/12/27 00:42:49;;;;;;;7.88;3.80;;;-0.40;87.00;;;;;;5021048;28;20037;-85
2020/12/27 00:45:14;;;;;;;11.10;3.88;;;-0.40;87.30;;;;;;5010008;28;20068;-84
2020/12/27 00:47:40;;;;;;;7.53;4.10;;;-0.40;87.00;;;;;;5021024;28;20046;-86
2020/12/27 00:50:05;;;;;;;12.07;4.45;;;-0.40;87.30;;;;;;5007915;28;20130;-83
2020/12/27 00:52:31;;;;;;;8.93;4.20;;;-0.50;87.10;;;;;;5025053;28;20092;-84
2020/12/27 00:54:56;;;;;;;8.18;4.32;;;-0.50;87.50;;;;;;5041378;28;20056;-85
2020/12/27 00:57:22;;;;;;;12.90;4.20;;;-0.50;88.00;;;;;;5044777;28;20048;-86
2020/12/27 00:59:47;;;;;;;15.15;5.43;;;-0.50;87.50;;;;;;5036784;28;20042;-85
2020/12/27 01:02:13;;;;;;;14.35;5.72;;;-0.50;87.70;;;;;;5028875;28;20030;-85
2020/12/27 01:04:39;;;;;;;13.40;4.18;;;-0.40;87.40;;;;;;5041931;28;20030;-86
2020/12/27 01:07:04;;;;;;;9.43;4.32;;;-0.50;88.10;;;;;;5007328;28;20095;-86
2020/12/27 01:09:30;;;;;;;8.73;3.95;;;-0.40;87.90;;;;;;5007238;28;20041;-86
2020/12/27 01:11:55;;;;;;;13.27;4.32;;;-0.50;87.90;;;;;;5022506;28;20068;-83
2020/12/27 01:14:21;;;;;;;10.45;4.35;;;-0.40;87.50;;;;;;5020384;28;20044;-85
2020/12/27 01:16:48;;;;;;;14.13;4.28;;;-0.50;87.40;;;;;;5021526;28;20037;-85
2020/12/27 01:19:14;;;;;;;11.63;4.53;;;-0.50;87.70;;;;;;5022496;28;20177;-85
2020/12/27 01:21:41;;;;;;;26.95;12.15;;;-0.50;87.90;;;;;;5018591;28;20089;-84
2020/12/27 01:24:07;;;;;;;13.23;5.72;;;-0.50;87.90;;;;;;5021601;28;20040;-83
2020/12/27 01:26:33;;;;;;;22.25;8.32;;;-0.50;88.10;;;;;;5021229;28;20029;-84
2020/12/27 01:29:00;;;;;;;7.93;4.65;;;-0.50;88.20;;;;;;5018099;28;20065;-83
2020/12/27 01:31:26;;;;;;;13.35;5.20;;;-0.50;88.40;;;;;;5012711;28;20033;-85
2020/12/27 01:33:52;;;;;;;9.68;4.05;;;-0.50;89.20;;;;;;5014229;28;20034;-82
2020/12/27 01:36:25;;;;;;;9.05;4.18;;;-0.50;88.70;;;;;;4996443;28;20152;-84
2020/12/27 01:38:50;;;;;;;16.08;6.53;;;-0.50;88.80;;;;;;5018587;28;20060;-84
2020/12/27 01:41:19;;;;;;;10.57;4.40;;;-0.40;88.80;;;;;;5014134;28;20116;-84
2020/12/27 01:44:07;;;;;;;14.15;6.93;;;-0.50;88.60;;;;;;5013916;28;20037;-84
2020/12/27 01:46:37;;;;;;;10.77;4.35;;;-0.50;89.30;;;;;;5018954;28;20075;-84
2020/12/27 01:49:04;;;;;;;19.55;6.85;;;-0.40;89.20;;;;;;5018986;28;20037;-84
2020/12/27 01:51:30;;;;;;;12.82;5.03;;;-0.50;89.20;;;;;;5022027;28;20084;-84
2020/12/27 01:53:56;;;;;;;12.13;4.70;;;-0.60;89.30;;;;;;5020582;28;20489;-85
2020/12/27 01:56:28;;;;;;;21.83;5.80;;;-0.60;89.40;;;;;;5001167;28;20033;-85
2020/12/27 01:59:01;;;;;;;11.50;5.50;;;-0.50;89.40;;;;;;5019594;28;20043;-86
2020/12/27 02:01:27;;;;;;;15.90;6.63;;;-0.60;89.70;;;;;;5000042;28;20041;-83
2020/12/27 02:03:52;;;;;;;6.10;3.97;;;-0.50;89.90;;;;;;5017758;28;20495;-84
2020/12/27 02:06:18;;;;;;;11.38;4.95;;;-0.50;90.40;;;;;;5015226;28;20622;-82
2020/12/27 02:08:45;;;;;;;11.32;5.57;;;-0.60;90.20;;;;;;5019453;28;20030;-83
2020/12/27 02:11:11;;;;;;;11.65;5.28;;;-0.60;90.40;;;;;;5003570;28;20060;-85
2020/12/27 02:13:47;;;;;;;11.65;4.50;;;-0.60;90.60;;;;;;5009966;28;20037;-83
2020/12/27 02:16:20;;;;;;;15.55;5.40;;;-0.70;90.80;;;;;;5004609;28;20037;-82
2020/12/27 02:18:48;;;;;;;7.68;3.83;;;-0.70;91.30;;;;;;5020694;28;20034;-84
2020/12/27 02:21:14;;;;;;;9.93;4.43;;;-0.80;90.90;;;;;;5020024;28;20042;-83
2020/12/27 02:23:40;;;;;;;11.60;4.60;;;-0.60;91.10;;;;;;5003055;28;20118;-82
2020/12/27 02:26:05;;;;;;;13.15;4.25;;;-0.70;91.40;;;;;;5028945;28;20109;-83
2020/12/27 02:28:32;;;;;;;8.15;4.13;;;-0.70;91.70;;;;;;5033932;28;20093;-82
2020/12/27 02:30:58;;;;;;;10.25;4.85;;;-0.60;91.30;;;;;;5020697;28;20044;-84
2020/12/27 02:33:24;;;;;;;11.55;4.15;;;-0.60;91.30;;;;;;5033096;28;20520;-84
2020/12/27 02:35:49;;;;;;;7.28;4.18;;;-0.60;91.40;;;;;;5018958;28;20036;-82
2020/12/27 02:38:15;;;;;;;7.18;3.42;;;-0.60;91.30;;;;;;5014764;28;20030;-83
2020/12/27 02:40:43;;;;;;;11.00;4.22;;;-0.60;90.30;;;;;;5023567;28;20055;-82
2020/12/27 02:43:17;;;;;;;11.35;4.43;;;-0.60;90.10;;;;;;5039622;28;20056;-82
2020/12/27 02:45:43;;;;;;;12.60;3.93;;;-0.60;90.20;;;;;;5031940;28;20042;-84
2020/12/27 02:48:09;;;;;;;16.13;3.90;;;-0.60;90.30;;;;;;5018883;28;20032;-84
2020/12/27 02:50:34;;;;;;;8.27;4.07;;;-0.60;90.10;;;;;;5001068;28;20860;-83
2020/12/27 02:53:01;;;;;;;10.35;4.47;;;-0.60;89.80;;;;;;5015399;28;20038;-83
2020/12/27 02:55:26;;;;;;;7.85;3.28;;;-0.60;90.00;;;;;;5016636;28;20087;-84
2020/12/27 02:57:52;;;;;;;14.60;5.30;;;-0.60;90.10;;;;;;5016639;28;20598;-84
2020/12/27 03:00:18;;;;;;;11.10;3.83;;;-0.60;89.30;;;;;;5013893;28;20087;-84
2020/12/27 03:02:43;;;;;;;10.18;3.83;;;-0.50;89.10;;;;;;5015027;28;20092;-83
2020/12/27 03:05:09;;;;;;;11.18;3.50;;;-0.50;88.40;;;;;;4997158;28;20072;-83
2020/12/27 03:07:34;;;;;;;11.52;4.53;;;-0.50;88.20;;;;;;5016816;28;20501;-82
2020/12/27 03:10:00;;;;;;;8.32;3.35;;;-0.50;88.30;;;;;;5015944;28;20061;-83
2020/12/27 03:12:25;;;;;;;10.65;3.38;;;-0.50;88.20;;;;;;5018420;28;20880;-84
2020/12/27 03:14:51;;;;;;;9.07;3.78;;;-0.50;87.80;;;;;;5015137;28;20061;-84
2020/12/27 03:17:16;;;;;;;6.30;3.28;;;-0.40;87.30;;;;;;5015637;28;20053;-84
2020/12/27 03:19:42;;;;;;;9.57;3.90;;;-0.50;85.70;;;;;;5020007;28;20085;-85
2020/12/27 03:22:07;;;;;;;8.57;4.30;;;-0.50;85.80;;;;;;5019702;28;20545;-84
2020/12/27 03:24:33;;;;;;;11.02;4.70;;;-0.50;85.60;;;;;;5015720;28;20053;-84
2020/12/27 03:26:58;;;;;;;14.70;4.25;;;-0.50;85.70;;;;;;5014159;28;20057;-85
2020/12/27 03:29:25;;;;;;;9.82;3.85;;;-0.50;85.70;;;;;;5018057;28;20033;-82
2020/12/27 03:31:50;;;;;;;7.13;3.50;;;-0.50;86.10;;;;;;5017606;28;20841;-82
2020/12/27 03:34:16;;;;;;;11.93;3.90;;;-0.60;85.80;;;;;;5014850;28;20033;-82
2020/12/27 03:36:42;;;;;;;7.25;3.90;;;-0.60;86.00;;;;;;5014003;28;20480;-82
2020/12/27 03:39:08;;;;;;;9.98;3.80;;;-0.50;86.30;;;;;;5016527;28;20041;-82
2020/12/27 03:41:33;;;;;;;9.85;4.03;;;-0.60;86.20;;;;;;5022521;28;20034;-82
2020/12/27 03:43:59;;;;;;;10.48;4.30;;;-0.60;86.40;;;;;;5017929;28;20160;-82
2020/12/27 03:46:24;;;;;;;14.77;4.22;;;-0.60;86.50;;;;;;5020788;28;20041;-82
2020/12/27 03:48:50;;;;;;;11.13;4.28;;;-0.60;87.30;;;;;;5021128;28;20033;-82
2020/12/27 03:51:15;;;;;;;11.98;3.92;;;-0.70;86.60;;;;;;5021328;28;20049;-84
2020/12/27 03:53:41;;;;;;;11.65;4.50;;;-0.60;86.60;;;;;;5022176;28;20038;-82
2020/12/27 03:56:06;;;;;;;12.80;5.00;;;-0.60;86.80;;;;;;5019651;28;20026;-82
2020/12/27 03:58:32;;;;;;;8.18;4.00;;;-0.70;86.80;;;;;;5017928;28;20029;-84
2020/12/27 04:00:58;;;;;;;12.60;4.90;;;-0.70;87.20;;;;;;5021521;28;20034;-82
2020/12/27 04:03:23;;;;;;;10.07;4.32;;;-0.70;87.00;;;;;;5018159;28;20548;-82
2020/12/27 04:05:49;;;;;;;8.35;4.00;;;-0.70;86.70;;;;;;5019833;28;20120;-82
2020/12/27 04:08:14;;;;;;;12.93;4.15;;;-0.70;86.40;;;;;;5017465;28;20046;-82
2020/12/27 04:10:40;;;;;;;11.23;4.30;;;-0.70;86.20;;;;;;5015392;28;20034;-85
2020/12/27 04:13:05;;;;;;;9.68;4.57;;;-0.70;86.70;;;;;;5014810;28;20496;-81
2020/12/27 04:15:31;;;;;;;11.10;4.10;;;-0.70;86.50;;;;;;5017444;28;20060;-81
2020/12/27 04:17:56;;;;;;;12.55;4.45;;;-0.70;86.30;;;;;;5018259;28;20049;-81
2020/12/27 04:20:22;;;;;;;13.13;4.25;;;-0.80;86.50;;;;;;5023482;28;20053;-84
2020/12/27 04:22:53;;;;;;;8.80;4.15;;;-0.80;86.10;;;;;;5018539;28;20053;-81
2020/12/27 04:25:19;;;;;;;10.90;4.63;;;-0.80;86.70;;;;;;5021635;28;20551;-82
2020/12/27 04:27:44;;;;;;;10.98;4.50;;;-0.80;87.00;;;;;;5020058;28;20033;-82
2020/12/27 04:30:10;;;;;;;13.00;4.53;;;-0.90;86.90;;;;;;5022999;28;20145;-83
2020/12/27 04:32:35;;;;;;;9.57;4.00;;;-0.90;86.40;;;;;;5022970;28;20759;-83
2020/12/27 04:35:02;;;;;;;10.30;4.38;;;-0.90;86.90;;;;;;5028466;28;20053;-83
2020/12/27 04:37:28;;;;;;;8.18;3.72;;;-0.90;88.20;;;;;;5025657;28;20034;-83
2020/12/27 04:39:55;;;;;;;9.02;4.00;;;-0.90;87.70;;;;;;5038182;28;20037;-83
2020/12/27 04:42:21;;;;;;;8.95;4.22;;;-0.90;87.00;;;;;;5007326;28;20093;-83
2020/12/27 04:44:48;;;;;;;14.57;4.68;;;-0.90;86.90;;;;;;5015186;28;20884;-83
2020/12/27 04:47:14;;;;;;;12.27;4.70;;;-0.90;86.40;;;;;;5035491;28;20034;-84
2020/12/27 04:49:40;;;;;;;9.50;3.95;;;-0.80;86.90;;;;;;5009509;28;20029;-83
2020/12/27 04:52:08;;;;;;;8.65;3.80;;;-0.80;87.00;;;;;;5020317;28;20041;-83
2020/12/27 04:54:35;;;;;;;8.02;4.43;;;-0.90;86.20;;;;;;5016614;28;20057;-84
2020/12/27 04:57:02;;;;;;;9.10;4.68;;;-0.90;86.40;;;;;;5023279;28;20116;-84
2020/12/27 04:59:28;;;;;;;7.63;4.07;;;-0.90;86.80;;;;;;5002907;28;20116;-83
2020/12/27 05:01:55;;;;;;;12.02;4.20;;;-0.90;86.60;;;;;;5025209;28;20878;-84
2020/12/27 05:04:24;;;;;;;10.25;4.63;;;-0.90;86.70;;;;;;5021314;28;20061;-82
2020/12/27 05:06:52;;;;;;;9.45;4.43;;;-0.90;86.80;;;;;;5004025;28;20041;-84
2020/12/27 05:09:26;;;;;;;9.10;4.22;;;-0.90;87.30;;;;;;5017442;28;20121;-84
2020/12/27 05:11:52;;;;;;;12.57;4.28;;;-1.00;87.50;;;;;;5028145;28;20048;-84
2020/12/27 05:14:21;;;;;;;13.05;4.85;;;-1.00;87.40;;;;;;5000923;28;20558;-84
2020/12/27 05:16:51;;;;;;;7.57;3.85;;;-0.90;87.90;;;;;;5019943;28;20060;-84
2020/12/27 05:19:17;;;;;;;8.93;4.47;;;-1.00;88.50;;;;;;5019458;28;20091;-82
2020/12/27 05:21:43;;;;;;;11.32;4.32;;;-1.00;88.70;;;;;;5017494;28;20037;-82
2020/12/27 05:24:08;;;;;;;9.18;4.63;;;-0.90;88.30;;;;;;5017056;28;20045;-81
2020/12/27 05:26:39;;;;;;;9.73;4.40;;;-0.90;88.30;;;;;;5025196;28;20134;-84
2020/12/27 05:29:04;;;;;;;11.35;4.90;;;-1.00;88.00;;;;;;5015164;28;20041;-83
2020/12/27 05:31:39;;;;;;;11.73;3.92;;;-0.90;88.30;;;;;;5020335;28;20026;-84
2020/12/27 05:34:08;;;;;;;10.93;5.43;;;-0.90;88.10;;;;;;5027595;28;20038;-83
2020/12/27 05:36:34;;;;;;;10.27;3.88;;;-0.90;88.00;;;;;;5029316;28;20056;-84
2020/12/27 05:38:59;;;;;;;11.23;4.85;;;-0.90;88.40;;;;;;5028631;28;20052;-83
2020/12/27 05:41:26;;;;;;;16.77;5.63;;;-0.90;88.30;;;;;;5029406;28;20493;-83
2020/12/27 05:44:00;;;;;;;11.60;4.70;;;-0.80;88.80;;;;;;5023316;28;20110;-84
2020/12/27 05:46:27;;;;;;;12.88;5.65;;;-0.80;88.10;;;;;;5015765;28;20592;-83
2020/12/27 05:48:54;;;;;;;12.30;5.28;;;-0.80;88.40;;;;;;5026191;28;20049;-82
2020/12/27 05:51:21;;;;;;;18.00;5.03;;;-0.80;88.00;;;;;;5029708;28;20049;-82
2020/12/27 05:53:50;;;;;;;8.98;4.32;;;-0.80;88.20;;;;;;5025614;28;20022;-84
2020/12/27 05:56:20;;;;;;;10.27;4.82;;;-0.80;88.30;;;;;;5017076;28;20052;-84
2020/12/27 05:58:49;;;;;;;9.20;4.75;;;-0.80;88.60;;;;;;5017408;28;20121;-84
2020/12/27 06:01:24;;;;;;;9.40;4.57;;;-0.70;88.10;;;;;;5000354;28;20037;-83
2020/12/27 06:04:00;;;;;;;10.63;4.22;;;-0.60;88.60;;;;;;5000728;28;20061;-81
2020/12/27 06:07:00;;;;;;;14.73;5.53;;;-0.60;88.40;;;;;;5013605;28;20041;-85
2020/12/27 06:09:50;;;;;;;22.95;4.50;;;-0.60;87.90;;;;;;5004280;28;20157;-84
2020/12/27 06:12:19;;;;;;;14.52;4.95;;;-0.60;88.40;;;;;;4998781;28;20037;-84
2020/12/27 06:15:08;;;;;;;9.50;4.28;;;-0.60;88.10;;;;;;5015949;28;20744;-84
2020/12/27 06:17:51;;;;;;;10.32;3.92;;;-0.60;88.00;;;;;;4981317;28;20558;-84
2020/12/27 06:20:19;;;;;;;9.88;4.45;;;-0.60;88.60;;;;;;4977143;28;20037;-84
2020/12/27 06:22:50;;;;;;;9.32;4.10;;;-0.60;88.40;;;;;;5000128;28;20120;-84
2020/12/27 06:25:17;;;;;;;10.57;4.78;;;-0.50;88.10;;;;;;4998282;28;20052;-84
2020/12/27 06:27:43;;;;;;;8.02;4.22;;;-0.50;88.50;;;;;;5017845;28;20433;-83
2020/12/27 06:30:20;;;;;;;9.70;4.60;;;-0.50;88.50;;;;;;4992208;28;20108;-83
2020/12/27 06:32:54;;;;;;;11.93;3.83;;;-0.50;88.50;;;;;;4991981;28;20041;-86
2020/12/27 06:35:29;;;;;;;10.60;3.80;;;-0.50;88.30;;;;;;4968847;28;20045;-86
2020/12/27 06:37:56;;;;;;;10.18;3.85;;;-0.50;88.40;;;;;;4974645;28;20053;-83
2020/12/27 06:40:21;;;;;;;9.02;4.32;;;-0.50;88.40;;;;;;4995661;28;20092;-84
2020/12/27 06:42:47;;;;;;;9.43;4.10;;;-0.40;87.70;;;;;;4970215;28;20038;-83
2020/12/27 06:45:29;;;;;;;10.00;3.92;;;-0.20;87.50;;;;;;4987597;28;20049;-83
2020/12/27 06:47:57;;;;;;;10.30;4.85;;;-0.40;86.80;;;;;;5009361;28;20033;-83
2020/12/27 06:50:24;;;;;;;8.75;4.07;;;-0.30;87.60;;;;;;5004796;28;20038;-84
2020/12/27 06:52:50;;;;;;;12.07;3.75;;;-0.30;87.40;;;;;;5018786;28;20487;-83
2020/12/27 06:55:41;;;;;;;8.85;3.67;;;-0.30;87.30;;;;;;5010403;28;20037;-85
2020/12/27 06:58:23;;;;;;;10.73;3.85;;;-0.30;87.60;;;;;;5019311;28;20037;-84
2020/12/27 07:01:08;;;;;;;14.73;4.05;;;-0.20;86.90;;;;;;5023109;28;20041;-84
2020/12/27 07:03:34;;;;;;;15.93;5.10;;;-0.20;86.60;;;;;;5001565;28;20120;-84
2020/12/27 07:06:17;;;;;;;7.50;3.70;;;-0.20;86.40;;;;;;5016540;28;20033;-84
2020/12/27 07:08:44;;;;;;;13.43;4.32;;;-0.20;86.00;;;;;;5024360;28;20471;-84
2020/12/27 07:11:10;;;;;;;8.43;3.97;;;-0.10;86.30;;;;;;5016331;28;20042;-84
2020/12/27 07:13:45;;;;;;;14.23;4.22;;;-0.20;86.10;;;;;;5028164;28;20038;-84
2020/12/27 07:16:12;;;;;;;11.45;4.20;;;-0.20;86.10;;;;;;5017638;28;20069;-85
2020/12/27 07:18:38;;;;;;;6.38;3.58;;;-0.20;86.50;;;;;;5024628;28;20052;-83
2020/12/27 07:21:11;;;;;;;10.43;4.25;;;-0.10;86.70;;;;;;5020866;28;20102;-84
2020/12/27 07:23:37;;;;;;;7.78;4.13;;;-0.20;86.50;;;;;;5002465;28;20037;-85
2020/12/27 07:26:04;;;;;;;9.27;3.60;;;-0.20;86.50;;;;;;5016557;28;20387;-85
2020/12/27 07:28:30;;;;;;;8.70;4.10;;;-0.10;86.70;;;;;;5012921;28;20038;-85
2020/12/27 07:31:03;;;;;;;8.73;4.30;;;-0.20;86.70;;;;;;5022538;28;20390;-83
2020/12/27 07:33:37;;;;;;;8.18;3.47;;;-0.20;86.40;;;;;;5001672;28;20041;-85
2020/12/27 07:36:04;;;;;;;;;;;-0.10;86.80;;;;;;5022820;28;20084;-83
2020/12/27 07:38:51;;;;;;;12.05;4.05;;;-0.10;87.00;;;;;;5035243;28;19897;-83
2020/12/27 07:41:49;;;;;;;9.63;3.97;;;-0.10;87.20;;;;;;5036587;28;20168;-84
2020/12/27 07:44:17;;;;;;;9.07;4.32;;;-0.20;86.60;;;;;;4999788;28;20416;-83
2020/12/27 07:46:44;;;;;;;11.20;3.88;;;-0.10;86.50;;;;;;5014785;28;20049;-85
2020/12/27 07:49:11;;;;;;;8.20;3.75;;;0.00;86.80;;;;;;5016468;28;20038;-84
2020/12/27 07:51:37;;;;;;;8.88;3.78;;;0.00;86.40;;;;;;5019491;28;20056;-85
2020/12/27 07:54:03;;;;;;;7.10;3.75;;;-0.10;86.10;;;;;;5011880;28;20065;-85
2020/12/27 07:56:29;;;;;;;13.52;4.47;;;-0.10;86.10;;;;;;5020690;28;20052;-82
2020/12/27 07:59:03;;;;;;;9.20;4.25;;;-0.10;86.20;;;;;;5018630;28;20037;-83
2020/12/27 08:01:30;;;;;;;7.55;3.58;;;-0.10;86.20;;;;;;5023742;28;20033;-83
2020/12/27 08:03:57;;;;;;;8.68;4.25;;;-0.10;86.40;;;;;;5026719;28;20060;-83
2020/12/27 08:06:24;;;;;;;10.30;3.83;;;-0.10;86.40;;;;;;5012287;28;20033;-83
2020/12/27 08:09:14;;;;;;;7.53;3.70;;;-0.10;85.90;;;;;;5020640;28;20049;-83
2020/12/27 08:11:41;;;;;;;13.73;4.55;;;-0.10;85.70;;;;;;5025061;28;20034;-86
2020/12/27 08:14:12;;;;;;;9.10;4.40;;;-0.10;86.10;;;;;;5022058;28;20037;-85
2020/12/27 08:16:42;;;;;;;10.43;4.22;;;0.00;86.30;;;;;;5029538;28;20030;-85
2020/12/27 08:19:17;;;;;;;10.45;4.50;;;0.00;85.20;;;;;;5040665;28;20053;-82
2020/12/27 08:21:44;;;;;;;10.50;4.38;;;0.20;85.40;;;;;;5039242;28;20034;-85
2020/12/27 08:24:11;;;;;;;11.40;4.13;;;0.20;86.00;;;;;;5019472;28;20477;-85
2020/12/27 08:26:40;;;;;;;11.88;4.53;;;0.10;84.90;;;;;;5022021;28;20029;-84
2020/12/27 08:29:24;;;;;;;8.73;3.75;;;0.10;84.60;;;;;;5034168;28;20215;-83
2020/12/27 08:31:55;;;;;;;10.38;3.92;;;0.10;83.90;;;;;;5031747;28;20034;-85
2020/12/27 08:34:25;;;;;;;8.60;3.65;;;0.10;84.00;;;;;;5022516;28;20088;-84
2020/12/27 08:36:55;;;;;;;7.30;3.70;;;0.20;84.50;;;;;;5027683;28;20041;-83
2020/12/27 08:39:34;;;;;;;6.03;3.35;;;0.40;84.60;;;;;;5019590;28;20037;-85
2020/12/27 08:42:19;;;;;;;11.40;4.47;;;0.30;84.60;;;;;;5025154;28;20045;-84
2020/12/27 08:44:46;;;;;;;14.15;4.22;;;0.30;83.40;;;;;;5011702;28;20061;-84
2020/12/27 08:47:23;;;;;;;8.90;3.70;;;0.30;82.90;;;;;;5008014;28;20500;-82
2020/12/27 08:50:12;;;;;;;10.95;3.85;;;0.30;83.20;;;;;;5001774;28;20116;-84
2020/12/27 08:52:38;;;;;;;7.60;4.25;;;0.30;83.30;;;;;;5019362;28;20026;-84
2020/12/27 08:55:09;;;;;;;8.52;4.03;;;0.30;83.10;;;;;;5016458;28;20558;-82
2020/12/27 08:57:36;;;;;;;8.05;4.05;;;0.40;82.90;;;;;;5019133;28;20026;-82
2020/12/27 09:00:13;;;;;;;17.00;3.80;;;0.50;82.90;;;;;;5018420;28;20048;-82
2020/12/27 09:02:40;;;;;;;9.32;4.38;;;0.40;83.00;;;;;;5023522;28;20065;-84
2020/12/27 09:05:07;;;;;;;12.55;4.47;;;0.40;82.60;;;;;;5015161;28;20041;-84
2020/12/27 09:07:34;;;;;;;9.60;4.47;;;0.40;82.40;;;;;;5020065;28;20088;-83
2020/12/27 09:10:17;;;;;;;9.57;4.30;;;0.50;81.80;;;;;;5001983;28;20097;-85
2020/12/27 09:12:57;;;;;;;6.28;3.70;;;0.50;80.40;;;;;;5013811;28;20124;-83
2020/12/27 09:15:44;;;;;;;9.95;4.13;;;0.60;80.00;;;;;;5011945;28;20057;-83
2020/12/27 09:18:11;;;;;;;6.30;3.35;;;0.70;79.70;;;;;;5026796;28;20033;-85
2020/12/27 09:20:42;;;;;;;14.13;4.30;;;0.80;79.20;;;;;;5025456;28;20124;-84
2020/12/27 09:23:15;;;;;;;11.20;4.05;;;0.80;79.00;;;;;;5005639;28;20052;-84
2020/12/27 09:25:42;;;;;;;7.50;3.65;;;1.00;79.20;;;;;;5019007;28;20041;-84
2020/12/27 09:28:21;;;;;;;7.57;3.78;;;0.90;77.50;;;;;;5029381;28;20038;-86
2020/12/27 09:30:59;;;;;;;10.32;4.10;;;1.00;76.70;;;;;;5021524;28;20601;-84
2020/12/27 09:33:24;;;;;;;10.90;4.20;;;1.00;75.50;;;;;;5018250;28;20105;-86
2020/12/27 09:35:57;;;;;;;6.95;3.95;;;1.10;75.30;;;;;;5024705;28;20121;-84
2020/12/27 09:38:25;;;;;;;11.95;4.65;;;1.10;75.20;;;;;;5021280;28;20048;-84
2020/12/27 09:41:20;;;;;;;10.35;4.55;;;1.00;74.80;;;;;;5020584;28;20069;-84
2020/12/27 09:43:49;;;;;;;7.95;4.25;;;1.10;75.60;;;;;;5020424;28;20049;-84
2020/12/27 09:46:39;;;;;;;10.23;3.72;;;1.10;75.60;;;;;;5019817;28;20041;-82
2020/12/27 09:49:24;;;;;;;12.13;4.68;;;1.30;74.20;;;;;;5015809;28;20506;-83
2020/12/27 09:52:11;;;;;;;9.25;4.15;;;1.50;75.20;;;;;;5002829;28;20038;-86
2020/12/27 09:54:39;;;;;;;8.15;4.22;;;1.50;74.40;;;;;;5021208;28;20038;-83
2020/12/27 09:57:18;;;;;;;8.75;4.47;;;1.60;74.00;;;;;;5002440;28;20044;-83
2020/12/27 09:59:45;;;;;;;11.52;4.35;;;1.50;72.70;;;;;;5018724;28;20044;-83
2020/12/27 10:02:11;;;;;;;11.93;3.72;;;1.60;73.40;;;;;;5018214;28;20792;-83
2020/12/27 10:04:37;;;;;;;15.68;3.75;;;1.70;73.00;;;;;;5021554;28;20098;-83
2020/12/27 10:07:03;;;;;;;10.55;4.28;;;1.80;72.60;;;;;;5019262;28;20539;-83
2020/12/27 10:09:29;;;;;;;7.10;3.55;;;1.80;72.10;;;;;;5003483;28;20842;-82
2020/12/27 10:11:55;;;;;;;8.13;4.25;;;1.80;71.70;;;;;;5022068;28;20071;-82
2020/12/27 10:14:21;;;;;;;8.93;3.17;;;1.90;71.40;;;;;;5018249;28;20034;-83
2020/12/27 10:16:46;;;;;;;15.30;4.57;;;1.90;71.60;;;;;;5014949;28;20121;-82
2020/12/27 10:19:12;;;;;;;8.43;3.78;;;1.90;71.20;;;;;;5016267;28;20041;-84
2020/12/27 10:21:37;;;;;;;9.55;3.47;;;1.90;71.40;;;;;;5019255;28;20033;-84
2020/12/27 10:24:03;;;;;;;7.47;3.53;;;1.80;71.10;;;;;;5017694;28;20037;-82
2020/12/27 10:26:29;;;;;;;6.35;3.47;;;1.80;71.90;;;;;;5006818;28;20031;-83
2020/12/27 10:28:54;;;;;;;11.65;4.78;;;1.90;70.90;;;;;;5017888;28;20049;-82
2020/12/27 10:31:20;;;;;;;18.35;4.57;;;1.90;70.80;;;;;;5017271;28;20122;-83
2020/12/27 10:33:45;;;;;;;12.15;3.88;;;1.90;70.70;;;;;;5013439;28;20479;-83
2020/12/27 10:36:11;;;;;;;11.38;3.70;;;1.90;69.70;;;;;;5012972;28;20045;-82
2020/12/27 10:38:36;;;;;;;7.95;3.92;;;1.90;69.60;;;;;;5010729;28;20034;-83
2020/12/27 10:41:03;;;;;;;11.10;4.07;;;1.90;69.70;;;;;;5023480;28;20041;-82
2020/12/27 10:43:29;;;;;;;6.75;3.55;;;2.10;69.70;;;;;;5018303;28;20120;-82
2020/12/27 10:46:02;;;;;;;6.47;3.47;;;2.00;69.40;;;;;;5018763;28;20072;-83
2020/12/27 10:48:30;;;;;;;11.52;3.83;;;2.10;69.40;;;;;;5016919;28;20041;-82
2020/12/27 10:50:57;;;;;;;11.43;3.97;;;2.10;69.10;;;;;;5012363;28;20160;-82
2020/12/27 10:53:23;;;;;;;9.35;3.80;;;2.20;69.20;;;;;;5026228;28;20791;-82
2020/12/27 10:55:49;;;;;;;9.50;3.90;;;2.10;68.10;;;;;;5020281;28;20038;-83
2020/12/27 10:58:15;;;;;;;8.20;3.88;;;2.20;68.40;;;;;;4997777;28;20552;-83
2020/12/27 11:00:42;;;;;;;10.27;3.28;;;2.20;67.50;;;;;;5005106;28;20041;-83
2020/12/27 11:03:07;;;;;;;7.63;4.15;;;2.20;67.40;;;;;;5016645;28;20099;-82
2020/12/27 11:05:33;;;;;;;11.00;3.65;;;2.20;67.00;;;;;;5017442;28;20053;-83
2020/12/27 11:07:59;;;;;;;8.98;4.30;;;2.20;66.60;;;;;;5017807;28;20041;-82
2020/12/27 11:10:24;;;;;;;6.70;3.70;;;2.30;67.00;;;;;;5015961;28;20050;-83
2020/12/27 11:12:50;;;;;;;10.02;4.70;;;2.30;66.40;;;;;;5015385;28;20030;-83
2020/12/27 11:15:16;;;;;;;9.07;3.78;;;2.30;67.00;;;;;;5019159;28;20068;-82
2020/12/27 11:17:42;;;;;;;13.82;3.53;;;2.30;67.50;;;;;;5022534;28;20218;-84
2020/12/27 11:20:08;;;;;;;9.75;4.20;;;2.40;67.30;;;;;;5027927;28;20033;-82
2020/12/27 11:22:38;;;;;;;7.25;3.40;;;2.50;67.90;;;;;;5028461;28;20116;-82
2020/12/27 11:25:04;;;;;;;12.82;4.45;;;2.60;67.40;;;;;;5018030;28;20037;-83
2020/12/27 11:27:30;;;;;;;7.45;4.28;;;2.50;67.30;;;;;;5023437;28;20029;-83
2020/12/27 11:29:56;;;;;;;12.95;5.00;;;2.50;67.50;;;;;;5014659;28;20053;-82
2020/12/27 11:32:22;;;;;;;10.95;4.63;;;2.40;67.90;;;;;;5016222;28;20040;-82
2020/12/27 11:34:48;;;;;;;9.07;4.65;;;2.50;68.20;;;;;;5024195;28;20121;-82
2020/12/27 11:37:14;;;;;;;12.40;4.70;;;2.40;68.40;;;;;;4998893;28;20037;-82
2020/12/27 11:39:40;;;;;;;14.20;5.13;;;2.40;68.10;;;;;;5021639;28;20038;-83
2020/12/27 11:42:06;;;;;;;10.50;4.80;;;2.40;68.80;;;;;;5019941;28;20195;-83
2020/12/27 11:44:31;;;;;;;14.07;5.32;;;2.40;69.60;;;;;;5028158;28;20038;-84
2020/12/27 11:46:57;;;;;;;10.95;4.78;;;2.30;69.30;;;;;;5027280;28;20034;-82
2020/12/27 11:49:22;;;;;;;10.75;4.60;;;2.40;69.40;;;;;;5035012;28;20045;-83
2020/12/27 11:51:48;;;;;;;8.80;5.07;;;2.30;69.50;;;;;;5033192;28;20035;-82
2020/12/27 11:54:14;;;;;;;8.90;4.60;;;2.30;69.50;;;;;;5032546;28;20098;-83
2020/12/27 11:56:43;;;;;;;10.20;4.65;;;2.40;69.70;;;;;;5028474;28;20037;-84
2020/12/27 11:59:09;;;;;;;9.75;4.72;;;2.40;69.60;;;;;;5005840;28;20563;-82
2020/12/27 12:01:35;;;;;;;10.07;4.63;;;2.40;69.60;;;;;;5032764;28;20044;-82
2020/12/27 12:04:00;;;;;;;10.20;4.85;;;2.40;69.70;;;;;;5040541;28;20542;-82
2020/12/27 12:06:26;;;;;;;11.38;5.22;;;2.50;70.00;;;;;;5035551;28;20053;-82
2020/12/27 12:08:52;;;;;;;9.43;4.38;;;2.40;70.10;;;;;;5038709;28;20034;-82
2020/12/27 12:11:18;;;;;;;12.52;5.13;;;2.40;70.60;;;;;;5038496;28;20052;-83
2020/12/27 12:13:43;;;;;;;9.82;4.90;;;2.40;70.50;;;;;;5039030;28;20482;-83
2020/12/27 12:16:16;;;;;;;11.52;5.03;;;2.40;70.60;;;;;;5035331;28;20044;-83
2020/12/27 12:18:42;;;;;;;10.68;4.78;;;2.50;70.90;;;;;;5026400;28;20045;-83
2020/12/27 12:21:10;;;;;;;12.93;5.97;;;2.50;71.20;;;;;;5027604;28;20029;-85
2020/12/27 12:23:36;;;;;;;11.35;5.63;;;2.50;70.90;;;;;;5023909;28;20101;-83
2020/12/27 12:26:02;;;;;;;9.98;5.05;;;2.50;71.10;;;;;;5022927;28;20069;-83
2020/12/27 12:28:28;;;;;;;10.73;4.75;;;2.60;70.90;;;;;;5023049;28;20048;-83
2020/12/27 12:30:53;;;;;;;11.65;4.70;;;2.60;71.30;;;;;;5024000;28;20049;-83
2020/12/27 12:33:19;;;;;;;9.07;4.72;;;2.60;71.30;;;;;;5025631;28;20134;-84
2020/12/27 12:35:44;;;;;;;12.02;5.18;;;2.60;71.20;;;;;;5031300;28;20080;-85
2020/12/27 12:38:10;;;;;;;12.55;5.60;;;2.70;71.20;;;;;;5023574;28;20045;-84
2020/12/27 12:40:36;;;;;;;10.95;5.07;;;2.70;70.80;;;;;;5022592;28;20037;-84
2020/12/27 12:43:02;;;;;;;12.38;4.97;;;2.80;71.10;;;;;;5023203;28;20747;-84
2020/12/27 12:45:27;;;;;;;13.43;4.75;;;2.70;71.20;;;;;;5005437;28;20077;-82
2020/12/27 12:47:53;;;;;;;7.78;4.85;;;2.80;71.70;;;;;;5023973;28;20040;-84
2020/12/27 12:50:19;;;;;;;12.90;5.43;;;2.70;71.40;;;;;;5029654;28;20112;-83
2020/12/27 12:52:44;;;;;;;9.15;5.10;;;2.90;71.80;;;;;;5028427;28;20038;-83